createdAt,value
2022-10-10T00:00:27.244Z,8.00
2022-10-10T00:01:31.976Z,8.00
2022-10-10T00:02:34.963Z,8.00
2022-10-10T00:03:36.975Z,8.00
2022-10-10T00:04:40.252Z,8.00
2022-10-10T00:05:42.727Z,7.90
2022-10-10T00:06:47.023Z,7.90
2022-10-10T00:07:48.950Z,7.90
2022-10-10T00:08:52.469Z,8.00
2022-10-10T00:09:54.502Z,8.00
2022-10-10T00:10:57.429Z,7.90
2022-10-10T00:11:59.451Z,7.90
2022-10-10T00:13:02.473Z,7.90
2022-10-10T00:14:05.505Z,7.80
2022-10-10T00:15:09.284Z,7.90
2022-10-10T00:16:12.637Z,7.80
2022-10-10T00:17:14.619Z,7.80
2022-10-10T00:18:17.705Z,7.80
2022-10-10T00:19:19.586Z,7.90
2022-10-10T00:20:22.746Z,7.80
2022-10-10T00:21:25.059Z,7.80
2022-10-10T00:22:29.272Z,7.80
2022-10-10T00:23:31.500Z,7.80
2022-10-10T00:24:34.481Z,7.80
2022-10-10T00:25:36.685Z,7.80
2022-10-10T00:26:39.538Z,7.80
2022-10-10T00:27:41.725Z,7.80
2022-10-10T00:28:44.767Z,7.80
2022-10-10T00:29:46.800Z,7.70
2022-10-10T00:30:49.959Z,7.80
2022-10-10T00:31:52.079Z,7.80
2022-10-10T00:32:54.972Z,7.80
2022-10-10T00:33:57.874Z,7.70
2022-10-10T00:34:59.914Z,7.70
2022-10-10T00:36:02.824Z,7.70
2022-10-10T00:37:04.811Z,7.70
2022-10-10T00:38:09.069Z,7.70
2022-10-10T00:39:11.052Z,7.70
2022-10-10T00:40:13.994Z,7.70
2022-10-10T00:41:16.127Z,7.70
2022-10-10T00:42:20.155Z,7.80
2022-10-10T00:43:22.729Z,7.70
2022-10-10T00:44:28.399Z,7.70
2022-10-10T00:45:37.404Z,7.80
2022-10-10T00:46:41.186Z,7.70
2022-10-10T00:47:43.193Z,7.80
2022-10-10T00:48:46.921Z,7.70
2022-10-10T00:49:48.887Z,7.80
2022-10-10T00:50:57.506Z,7.80
2022-10-10T00:52:00.480Z,7.70
2022-10-10T00:53:06.678Z,7.70
2022-10-10T00:54:13.785Z,7.70
2022-10-10T00:55:16.951Z,7.70
2022-10-10T00:56:23.178Z,7.70
2022-10-10T00:57:25.129Z,7.60
2022-10-10T00:58:28.025Z,7.60
2022-10-10T00:59:32.591Z,7.60
2022-10-10T01:00:35.967Z,7.60
2022-10-10T01:01:38.461Z,7.60
2022-10-10T01:02:42.166Z,7.60
2022-10-10T01:03:44.089Z,7.60
2022-10-10T01:04:47.195Z,7.50
2022-10-10T01:05:50.309Z,7.50
2022-10-10T01:06:53.237Z,7.50
2022-10-10T01:07:56.336Z,7.50
2022-10-10T01:08:59.692Z,7.60
2022-10-10T01:10:06.299Z,7.60
2022-10-10T01:11:25.572Z,7.60
2022-10-10T01:12:38.006Z,7.60
2022-10-10T01:13:51.810Z,7.60
2022-10-10T01:15:00.093Z,7.60
2022-10-10T01:16:08.557Z,7.60
2022-10-10T01:17:19.055Z,7.50
2022-10-10T01:18:29.345Z,7.50
2022-10-10T01:19:51.742Z,7.50
2022-10-10T01:21:14.566Z,7.50
2022-10-10T01:22:26.535Z,7.50
2022-10-10T01:24:02.403Z,7.50
2022-10-10T01:25:17.213Z,7.50
2022-10-10T01:26:50.820Z,7.50
2022-10-10T01:27:59.488Z,7.50
2022-10-10T01:29:09.622Z,7.40
2022-10-10T01:30:15.208Z,7.40
2022-10-10T01:31:22.622Z,7.40
2022-10-10T01:32:33.808Z,7.40
2022-10-10T01:33:43.897Z,7.40
2022-10-10T01:34:56.743Z,7.40
2022-10-10T01:36:07.005Z,7.40
2022-10-10T01:37:18.307Z,7.40
2022-10-10T01:38:30.636Z,7.30
2022-10-10T01:39:40.570Z,7.30
2022-10-10T01:40:50.244Z,7.30
2022-10-10T01:41:59.274Z,7.30
2022-10-10T01:43:05.356Z,7.30
2022-10-10T01:44:08.657Z,7.30
2022-10-10T01:45:11.862Z,7.30
2022-10-10T01:46:15.452Z,7.30
2022-10-10T01:47:18.407Z,7.20
2022-10-10T01:48:24.846Z,7.20
2022-10-10T01:49:34.049Z,7.20
2022-10-10T01:50:44.542Z,7.20
2022-10-10T01:52:00.953Z,7.20
2022-10-10T01:53:10.482Z,7.20
2022-10-10T01:54:30.060Z,7.20
2022-10-10T01:55:49.004Z,7.20
2022-10-10T01:57:00.885Z,7.20
2022-10-10T01:58:19.763Z,7.20
2022-10-10T01:59:35.148Z,7.20
2022-10-10T02:00:46.212Z,7.20
2022-10-10T02:01:54.888Z,7.20
2022-10-10T02:03:03.232Z,7.20
2022-10-10T02:04:12.094Z,7.20
2022-10-10T02:05:23.624Z,7.20
2022-10-10T02:06:33.941Z,7.20
2022-10-10T02:07:43.508Z,7.20
2022-10-10T02:08:51.927Z,7.20
2022-10-10T02:09:55.033Z,7.10
2022-10-10T02:11:01.881Z,7.10
2022-10-10T02:12:05.188Z,7.10
2022-10-10T02:13:11.044Z,7.10
2022-10-10T02:14:17.873Z,7.10
2022-10-10T02:15:25.602Z,7.10
2022-10-10T02:16:32.293Z,7.10
2022-10-10T02:17:37.474Z,7.10
2022-10-10T02:18:39.923Z,7.10
2022-10-10T02:19:46.901Z,7.00
2022-10-10T02:20:51.272Z,7.00
2022-10-10T02:21:55.541Z,7.00
2022-10-10T02:22:58.950Z,7.00
2022-10-10T02:24:06.374Z,7.00
2022-10-10T02:25:09.235Z,7.00
2022-10-10T02:26:14.415Z,7.00
2022-10-10T02:27:22.226Z,7.00
2022-10-10T02:28:30.370Z,7.00
2022-10-10T02:29:35.896Z,7.00
2022-10-10T02:30:45.139Z,7.00
2022-10-10T02:31:54.727Z,7.00
2022-10-10T02:33:01.792Z,7.00
2022-10-10T02:34:08.885Z,7.00
2022-10-10T02:35:16.482Z,7.00
2022-10-10T02:36:20.115Z,7.00
2022-10-10T02:37:23.683Z,7.00
2022-10-10T02:38:27.574Z,7.00
2022-10-10T02:39:40.960Z,6.90
2022-10-10T02:40:45.801Z,7.00
2022-10-10T02:41:50.891Z,7.00
2022-10-10T02:42:54.679Z,7.00
2022-10-10T02:43:57.330Z,7.00
2022-10-10T02:45:00.979Z,7.00
2022-10-10T02:46:08.328Z,6.90
2022-10-10T02:47:12.691Z,7.00
2022-10-10T02:48:14.659Z,7.00
2022-10-10T02:49:28.270Z,6.90
2022-10-10T02:50:31.576Z,6.90
2022-10-10T02:51:34.810Z,6.90
2022-10-10T02:52:36.769Z,6.90
2022-10-10T02:53:40.072Z,6.90
2022-10-10T02:54:42.185Z,6.90
2022-10-10T02:55:45.229Z,6.90
2022-10-10T02:56:47.219Z,6.80
2022-10-10T02:57:50.340Z,6.80
2022-10-10T02:58:52.507Z,6.80
2022-10-10T02:59:55.579Z,6.80
2022-10-10T03:00:57.561Z,6.80
2022-10-10T03:02:02.270Z,6.80
2022-10-10T03:03:04.467Z,6.90
2022-10-10T03:04:07.698Z,6.80
2022-10-10T03:05:10.094Z,6.80
2022-10-10T03:06:13.266Z,6.80
2022-10-10T03:07:15.389Z,6.90
2022-10-10T03:08:18.503Z,6.90
2022-10-10T03:09:20.655Z,6.90
2022-10-10T03:10:23.638Z,6.90
2022-10-10T03:11:25.804Z,6.90
2022-10-10T03:12:29.100Z,6.90
2022-10-10T03:13:31.207Z,6.90
2022-10-10T03:14:34.385Z,6.90
2022-10-10T03:15:36.679Z,6.90
2022-10-10T03:16:39.556Z,6.90
2022-10-10T03:17:43.034Z,6.90
2022-10-10T03:18:46.077Z,6.80
2022-10-10T03:19:48.015Z,6.80
2022-10-10T03:20:53.408Z,6.80
2022-10-10T03:21:55.394Z,6.80
2022-10-10T03:22:58.391Z,6.70
2022-10-10T03:24:00.466Z,6.80
2022-10-10T03:25:03.574Z,6.70
2022-10-10T03:26:06.323Z,6.70
2022-10-10T03:27:09.181Z,6.70
2022-10-10T03:28:12.156Z,6.70
2022-10-10T03:29:15.109Z,6.70
2022-10-10T03:30:17.338Z,6.70
2022-10-10T03:31:20.363Z,6.70
2022-10-10T03:32:22.394Z,6.70
2022-10-10T03:33:26.751Z,6.70
2022-10-10T03:34:28.863Z,6.80
2022-10-10T03:35:32.963Z,6.80
2022-10-10T03:36:35.887Z,6.80
2022-10-10T03:37:37.829Z,6.80
2022-10-10T03:38:41.092Z,6.80
2022-10-10T03:39:43.059Z,6.80
2022-10-10T03:40:46.487Z,6.80
2022-10-10T03:41:50.332Z,6.80
2022-10-10T03:42:53.999Z,6.80
2022-10-10T03:43:56.435Z,6.80
2022-10-10T03:44:59.351Z,6.80
2022-10-10T03:46:01.303Z,6.80
2022-10-10T03:47:04.598Z,6.80
2022-10-10T03:48:06.633Z,6.80
2022-10-10T03:49:10.833Z,6.80
2022-10-10T03:50:12.890Z,6.80
2022-10-10T03:51:15.924Z,6.80
2022-10-10T03:52:17.950Z,6.80
2022-10-10T03:53:20.859Z,6.80
2022-10-10T03:54:22.853Z,6.80
2022-10-10T03:55:25.805Z,6.80
2022-10-10T03:56:27.819Z,6.80
2022-10-10T03:57:30.822Z,6.80
2022-10-10T03:58:32.854Z,6.80
2022-10-10T03:59:35.943Z,6.80
2022-10-10T04:00:38.119Z,6.80
2022-10-10T04:01:41.231Z,6.80
2022-10-10T04:02:43.418Z,6.80
2022-10-10T04:03:51.278Z,6.70
2022-10-10T04:04:55.366Z,6.80
2022-10-10T04:05:58.745Z,6.70
2022-10-10T04:07:00.879Z,6.70
2022-10-10T04:08:05.130Z,6.60
2022-10-10T04:09:07.221Z,6.60
2022-10-10T04:10:10.540Z,6.60
2022-10-10T04:11:12.492Z,6.60
2022-10-10T04:12:15.626Z,6.60
2022-10-10T04:13:18.194Z,6.60
2022-10-10T04:14:21.306Z,6.60
2022-10-10T04:15:23.361Z,6.70
2022-10-10T04:16:26.432Z,6.70
2022-10-10T04:17:28.674Z,6.70
2022-10-10T04:18:31.625Z,6.70
2022-10-10T04:19:33.607Z,6.70
2022-10-10T04:20:37.846Z,6.60
2022-10-10T04:21:39.864Z,6.60
2022-10-10T04:22:43.348Z,6.60
2022-10-10T04:23:45.270Z,6.60
2022-10-10T04:24:48.266Z,6.60
2022-10-10T04:25:52.122Z,6.60
2022-10-10T04:26:55.812Z,6.50
2022-10-10T04:28:00.977Z,6.50
2022-10-10T04:29:04.838Z,6.50
2022-10-10T04:30:08.071Z,6.50
2022-10-10T04:31:11.375Z,6.50
2022-10-10T04:32:13.322Z,6.50
2022-10-10T04:33:16.601Z,6.50
2022-10-10T04:34:19.581Z,6.50
2022-10-10T04:35:22.623Z,6.50
2022-10-10T04:36:26.008Z,6.50
2022-10-10T04:37:29.358Z,6.50
2022-10-10T04:38:31.675Z,6.40
2022-10-10T04:39:34.878Z,6.50
2022-10-10T04:40:37.448Z,6.50
2022-10-10T04:41:40.653Z,6.40
2022-10-10T04:42:42.663Z,6.40
2022-10-10T04:43:45.799Z,6.40
2022-10-10T04:44:47.687Z,6.40
2022-10-10T04:45:50.806Z,6.30
2022-10-10T04:46:53.598Z,6.30
2022-10-10T04:47:59.443Z,6.30
2022-10-10T04:49:08.182Z,6.30
2022-10-10T04:50:16.961Z,6.30
2022-10-10T04:51:26.760Z,6.30
2022-10-10T04:52:31.239Z,6.20
2022-10-10T04:53:34.499Z,6.20
2022-10-10T04:54:37.869Z,6.30
2022-10-10T04:55:47.196Z,6.30
2022-10-10T04:56:50.165Z,6.20
2022-10-10T04:57:53.039Z,6.20
2022-10-10T04:58:56.358Z,6.20
2022-10-10T04:59:58.740Z,6.10
2022-10-10T05:01:02.247Z,6.10
2022-10-10T05:02:04.934Z,6.10
2022-10-10T05:03:13.650Z,6.10
2022-10-10T05:04:16.825Z,6.10
2022-10-10T05:05:20.058Z,6.10
2022-10-10T05:06:28.544Z,6.10
2022-10-10T05:07:30.565Z,6.10
2022-10-10T05:08:33.471Z,6.10
2022-10-10T05:09:45.002Z,6.10
2022-10-10T05:10:53.646Z,6.10
2022-10-10T05:11:56.003Z,6.00
2022-10-10T05:12:59.470Z,6.00
2022-10-10T05:14:07.193Z,6.00
2022-10-10T05:15:11.169Z,6.10
2022-10-10T05:16:13.595Z,6.10
2022-10-10T05:17:16.570Z,6.00
2022-10-10T05:18:18.979Z,6.00
2022-10-10T05:19:21.998Z,6.10
2022-10-10T05:20:24.394Z,6.00
2022-10-10T05:21:29.050Z,6.00
2022-10-10T05:22:30.956Z,6.00
2022-10-10T05:23:34.503Z,6.00
2022-10-10T05:24:37.308Z,6.00
2022-10-10T05:25:40.822Z,6.00
2022-10-10T05:26:46.701Z,6.00
2022-10-10T05:27:49.729Z,6.00
2022-10-10T05:28:51.739Z,6.00
2022-10-10T05:29:55.620Z,6.00
2022-10-10T05:30:57.594Z,6.00
2022-10-10T05:32:04.379Z,6.00
2022-10-10T05:33:09.740Z,6.00
2022-10-10T05:34:14.371Z,6.00
2022-10-10T05:35:17.534Z,5.90
2022-10-10T05:36:20.417Z,5.90
2022-10-10T05:37:23.873Z,6.00
2022-10-10T05:38:26.943Z,5.90
2022-10-10T05:39:28.941Z,5.90
2022-10-10T05:40:31.946Z,6.00
2022-10-10T05:41:33.886Z,5.90
2022-10-10T05:42:36.979Z,6.00
2022-10-10T05:43:39.282Z,5.90
2022-10-10T05:44:42.576Z,5.90
2022-10-10T05:45:44.557Z,6.00
2022-10-10T05:46:47.498Z,5.90
2022-10-10T05:47:49.569Z,5.90
2022-10-10T05:48:53.450Z,6.00
2022-10-10T05:49:55.511Z,6.00
2022-10-10T05:51:00.014Z,6.00
2022-10-10T05:52:02.179Z,6.00
2022-10-10T05:53:07.461Z,6.00
2022-10-10T05:54:10.029Z,6.10
2022-10-10T05:55:13.133Z,6.10
2022-10-10T05:56:16.996Z,6.10
2022-10-10T05:57:20.033Z,6.10
2022-10-10T05:58:22.163Z,6.20
2022-10-10T05:59:25.408Z,6.20
2022-10-10T06:00:27.474Z,6.20
2022-10-10T06:01:30.320Z,6.30
2022-10-10T06:02:32.321Z,6.30
2022-10-10T06:03:36.019Z,6.30
2022-10-10T06:04:38.092Z,6.40
2022-10-10T06:05:41.966Z,6.40
2022-10-10T06:06:43.913Z,6.40
2022-10-10T06:08:04.602Z,6.50
2022-10-10T06:09:11.128Z,6.50
2022-10-10T06:10:13.263Z,6.60
2022-10-10T06:11:18.091Z,6.60
2022-10-10T06:12:20.023Z,6.60
2022-10-10T06:13:24.446Z,6.70
2022-10-10T06:14:27.545Z,6.70
2022-10-10T06:15:29.496Z,6.70
2022-10-10T06:16:32.642Z,6.70
2022-10-10T06:17:35.507Z,6.80
2022-10-10T06:18:37.985Z,6.80
2022-10-10T06:19:41.023Z,6.90
2022-10-10T06:20:42.982Z,6.90
2022-10-10T06:21:46.213Z,6.90
2022-10-10T06:22:48.504Z,6.90
2022-10-10T06:23:52.045Z,6.90
2022-10-10T06:24:55.638Z,6.90
2022-10-10T06:25:58.683Z,7.00
2022-10-10T06:27:00.837Z,7.00
2022-10-10T06:28:03.831Z,7.00
2022-10-10T06:29:06.714Z,7.00
2022-10-10T06:30:10.523Z,7.10
2022-10-10T06:31:14.767Z,7.10
2022-10-10T06:32:16.866Z,7.10
2022-10-10T06:33:20.363Z,7.10
2022-10-10T06:34:22.268Z,7.10
2022-10-10T06:35:25.696Z,7.20
2022-10-10T06:36:28.918Z,7.20
2022-10-10T06:37:30.859Z,7.20
2022-10-10T06:38:36.931Z,7.20
2022-10-10T06:39:39.084Z,7.20
2022-10-10T06:40:44.085Z,7.30
2022-10-10T06:41:46.172Z,7.30
2022-10-10T06:42:49.413Z,7.30
2022-10-10T06:43:54.292Z,7.30
2022-10-10T06:44:56.225Z,7.30
2022-10-10T06:45:59.369Z,7.30
2022-10-10T06:47:01.306Z,7.40
2022-10-10T06:48:05.246Z,7.30
2022-10-10T06:49:09.214Z,7.30
2022-10-10T06:50:11.426Z,7.40
2022-10-10T06:51:16.474Z,7.40
2022-10-10T06:52:18.519Z,7.40
2022-10-10T06:53:21.354Z,7.40
2022-10-10T06:54:23.547Z,7.40
2022-10-10T06:55:26.421Z,7.50
2022-10-10T06:56:30.645Z,7.50
2022-10-10T06:57:33.574Z,7.50
2022-10-10T06:58:36.760Z,7.50
2022-10-10T06:59:38.733Z,7.50
2022-10-10T07:00:41.774Z,7.60
2022-10-10T07:01:44.704Z,7.70
2022-10-10T07:02:47.213Z,7.70
2022-10-10T07:03:50.135Z,7.70
2022-10-10T07:04:52.058Z,7.80
2022-10-10T07:05:57.470Z,7.80
2022-10-10T07:07:00.375Z,7.80
2022-10-10T07:08:02.282Z,7.90
2022-10-10T07:09:05.359Z,8.00
2022-10-10T07:10:09.851Z,8.10
2022-10-10T07:11:12.716Z,8.10
2022-10-10T07:12:16.019Z,8.30
2022-10-10T07:13:19.677Z,8.30
2022-10-10T07:14:21.788Z,8.40
2022-10-10T07:15:24.650Z,8.50
2022-10-10T07:16:27.870Z,8.60
2022-10-10T07:17:31.314Z,8.80
2022-10-10T07:18:36.741Z,9.00
2022-10-10T07:19:38.728Z,9.30
2022-10-10T07:20:41.945Z,9.60
2022-10-10T07:21:43.938Z,9.90
2022-10-10T07:22:46.866Z,10.10
2022-10-10T07:23:48.887Z,10.60
2022-10-10T07:24:51.881Z,11.00
2022-10-10T07:26:01.012Z,11.30
2022-10-10T07:27:08.505Z,11.60
2022-10-10T07:28:13.144Z,12.10
2022-10-10T07:29:16.216Z,12.70
2022-10-10T07:30:18.538Z,12.80
2022-10-10T07:31:22.011Z,13.00
2022-10-10T07:32:23.980Z,13.10
2022-10-10T07:33:27.016Z,13.20
2022-10-10T07:34:29.856Z,13.40
2022-10-10T07:35:31.853Z,13.30
2022-10-10T07:36:35.114Z,13.20
2022-10-10T07:37:37.016Z,13.20
2022-10-10T07:38:40.460Z,13.00
2022-10-10T07:39:42.446Z,12.90
2022-10-10T07:40:45.281Z,12.80
2022-10-10T07:41:47.242Z,12.60
2022-10-10T07:42:50.342Z,12.50
2022-10-10T07:43:57.530Z,12.30
2022-10-10T07:44:59.584Z,12.20
2022-10-10T07:46:04.159Z,12.00
2022-10-10T07:47:08.030Z,12.00
2022-10-10T07:48:11.183Z,11.90
2022-10-10T07:49:13.340Z,11.70
2022-10-10T07:50:16.203Z,11.60
2022-10-10T07:51:18.323Z,11.60
2022-10-10T07:52:21.381Z,11.60
2022-10-10T07:53:23.351Z,11.60
2022-10-10T07:54:26.457Z,11.60
2022-10-10T07:55:28.327Z,11.70
2022-10-10T07:56:31.192Z,11.70
2022-10-10T07:57:35.044Z,11.80
2022-10-10T07:58:38.279Z,11.90
2022-10-10T07:59:42.821Z,12.00
2022-10-10T08:00:45.959Z,12.10
2022-10-10T08:01:48.847Z,12.10
2022-10-10T08:02:52.228Z,12.20
2022-10-10T08:03:56.071Z,12.40
2022-10-10T08:04:59.003Z,12.50
2022-10-10T08:06:03.533Z,12.80
2022-10-10T08:07:06.442Z,13.20
2022-10-10T08:08:10.314Z,13.60
2022-10-10T08:09:13.149Z,13.90
2022-10-10T08:10:15.449Z,14.20
2022-10-10T08:11:18.697Z,14.40
2022-10-10T08:12:21.716Z,14.50
2022-10-10T08:13:23.685Z,14.80
2022-10-10T08:14:26.516Z,14.80
2022-10-10T08:15:33.128Z,14.80
2022-10-10T08:16:36.977Z,14.70
2022-10-10T08:17:38.883Z,14.60
2022-10-10T08:18:42.032Z,14.40
2022-10-10T08:19:45.074Z,14.20
2022-10-10T08:20:48.286Z,14.10
2022-10-10T08:21:50.609Z,13.90
2022-10-10T08:22:53.873Z,13.80
2022-10-10T08:23:57.151Z,13.70
2022-10-10T08:24:59.966Z,13.60
2022-10-10T08:26:07.007Z,13.50
2022-10-10T08:27:09.975Z,13.40
2022-10-10T08:28:11.974Z,13.20
2022-10-10T08:29:14.966Z,13.10
2022-10-10T08:30:17.930Z,13.00
2022-10-10T08:31:22.574Z,12.80
2022-10-10T08:32:25.533Z,12.60
2022-10-10T08:33:28.424Z,12.50
2022-10-10T08:34:31.458Z,12.40
2022-10-10T08:35:37.494Z,12.40
2022-10-10T08:36:40.421Z,12.20
2022-10-10T08:37:42.531Z,12.20
2022-10-10T08:38:45.531Z,12.20
2022-10-10T08:39:47.563Z,12.10
2022-10-10T08:40:52.075Z,12.00
2022-10-10T08:41:58.060Z,12.10
2022-10-10T08:43:04.659Z,12.10
2022-10-10T08:44:15.379Z,12.10
2022-10-10T08:45:23.400Z,12.20
2022-10-10T08:46:35.778Z,12.20
2022-10-10T08:47:42.788Z,12.40
2022-10-10T08:48:46.695Z,12.50
2022-10-10T08:49:53.444Z,12.60
2022-10-10T08:50:58.658Z,12.50
2022-10-10T08:52:06.998Z,12.60
2022-10-10T08:53:15.043Z,12.70
2022-10-10T08:54:19.621Z,12.80
2022-10-10T08:55:26.501Z,12.90
2022-10-10T08:56:33.922Z,12.90
2022-10-10T08:57:47.399Z,12.90
2022-10-10T08:58:55.475Z,12.90
2022-10-10T09:00:03.410Z,12.90
2022-10-10T09:01:11.727Z,13.00
2022-10-10T09:02:50.172Z,13.10
2022-10-10T09:03:58.305Z,13.10
2022-10-10T09:05:00.552Z,13.20
2022-10-10T09:06:18.047Z,13.30
2022-10-10T09:07:29.432Z,13.30
2022-10-10T09:08:45.434Z,13.30
2022-10-10T09:10:00.488Z,13.30
2022-10-10T09:11:09.081Z,13.30
2022-10-10T09:12:22.790Z,13.30
2022-10-10T09:13:33.016Z,13.30
2022-10-10T09:14:44.602Z,13.30
2022-10-10T09:15:54.673Z,13.30
2022-10-10T09:17:02.550Z,13.30
2022-10-10T09:18:15.230Z,13.20
2022-10-10T09:19:32.542Z,13.30
2022-10-10T09:20:46.660Z,13.20
2022-10-10T09:21:48.663Z,13.20
2022-10-10T09:22:55.792Z,13.30
2022-10-10T09:24:02.537Z,13.30
2022-10-10T09:25:11.771Z,13.50
2022-10-10T09:26:17.376Z,13.60
2022-10-10T09:27:24.928Z,13.60
2022-10-10T09:28:38.642Z,13.70
2022-10-10T09:29:47.862Z,13.80
2022-10-10T09:30:55.735Z,13.80
2022-10-10T09:32:04.125Z,13.80
2022-10-10T09:33:18.023Z,13.90
2022-10-10T09:34:30.647Z,13.90
2022-10-10T09:35:35.814Z,14.00
2022-10-10T09:36:39.696Z,14.00
2022-10-10T09:37:48.129Z,14.00
2022-10-10T09:38:54.725Z,14.10
2022-10-10T09:40:01.185Z,14.10
2022-10-10T09:41:09.440Z,14.10
2022-10-10T09:42:14.929Z,14.10
2022-10-10T09:43:18.769Z,14.10
2022-10-10T09:44:23.271Z,14.10
2022-10-10T09:45:31.310Z,14.10
2022-10-10T09:46:33.469Z,14.20
2022-10-10T09:47:36.373Z,14.10
2022-10-10T09:48:42.877Z,14.10
2022-10-10T09:49:45.484Z,14.20
2022-10-10T09:50:48.607Z,14.20
2022-10-10T09:51:51.746Z,14.20
2022-10-10T09:52:54.051Z,14.10
2022-10-10T09:53:57.113Z,14.20
2022-10-10T09:55:02.130Z,14.20
2022-10-10T09:56:08.037Z,14.20
2022-10-10T09:57:15.006Z,14.30
2022-10-10T09:58:25.853Z,14.30
2022-10-10T09:59:40.907Z,14.30
2022-10-10T10:00:42.934Z,14.40
2022-10-10T10:02:03.345Z,14.30
2022-10-10T10:03:12.102Z,14.20
2022-10-10T10:04:33.684Z,14.20
2022-10-10T10:05:36.649Z,14.20
2022-10-10T10:06:40.282Z,14.10
2022-10-10T10:07:49.349Z,14.10
2022-10-10T10:08:53.980Z,14.10
2022-10-10T10:09:58.471Z,14.10
2022-10-10T10:11:02.494Z,14.20
2022-10-10T10:12:05.900Z,14.30
2022-10-10T10:13:14.476Z,14.30
2022-10-10T10:14:26.726Z,14.40
2022-10-10T10:15:33.085Z,14.50
2022-10-10T10:16:39.963Z,14.60
2022-10-10T10:17:42.245Z,14.70
2022-10-10T10:18:47.798Z,14.70
2022-10-10T10:19:51.612Z,14.80
2022-10-10T10:21:09.448Z,14.80
2022-10-10T10:22:27.238Z,14.80
2022-10-10T10:23:34.780Z,14.80
2022-10-10T10:24:37.826Z,14.90
2022-10-10T10:25:39.754Z,14.90
2022-10-10T10:26:45.655Z,14.90
2022-10-10T10:27:47.656Z,14.90
2022-10-10T10:28:52.771Z,14.90
2022-10-10T10:29:57.419Z,14.90
2022-10-10T10:30:59.652Z,14.90
2022-10-10T10:32:14.576Z,14.80
2022-10-10T10:33:29.695Z,14.90
2022-10-10T10:35:04.057Z,14.80
2022-10-10T10:36:20.424Z,14.80
2022-10-10T10:37:25.803Z,14.80
2022-10-10T10:38:42.483Z,14.70
2022-10-10T10:39:57.557Z,14.80
2022-10-10T10:41:06.701Z,14.80
2022-10-10T10:42:22.575Z,14.80
2022-10-10T10:43:50.084Z,14.80
2022-10-10T10:45:00.333Z,14.80
2022-10-10T10:46:11.681Z,14.80
2022-10-10T10:47:29.947Z,14.80
2022-10-10T10:48:43.267Z,14.80
2022-10-10T10:49:56.673Z,14.90
2022-10-10T10:51:07.727Z,14.90
2022-10-10T10:52:34.378Z,15.00
2022-10-10T10:53:44.373Z,15.10
2022-10-10T10:55:03.518Z,15.20
2022-10-10T10:56:16.256Z,15.30
2022-10-10T10:57:45.460Z,15.20
2022-10-10T11:01:23.846Z,15.30
2022-10-10T11:02:43.547Z,15.30
2022-10-10T11:05:15.794Z,15.30
2022-10-10T11:05:41.713Z,15.20
2022-10-10T11:07:17.803Z,15.20
2022-10-10T11:08:36.612Z,15.30
2022-10-10T11:09:50.050Z,15.30
2022-10-10T11:11:06.687Z,15.40
2022-10-10T11:12:21.942Z,15.40
2022-10-10T11:13:31.583Z,15.30
2022-10-10T11:14:47.970Z,15.40
2022-10-10T11:16:24.398Z,15.40
2022-10-10T11:17:27.329Z,15.50
2022-10-10T11:18:33.329Z,15.50
2022-10-10T11:19:42.703Z,15.60
2022-10-10T11:20:47.549Z,15.60
2022-10-10T11:21:57.106Z,15.60
2022-10-10T11:23:08.681Z,15.60
2022-10-10T11:24:16.434Z,15.60
2022-10-10T11:25:23.866Z,15.60
2022-10-10T11:26:32.632Z,15.60
2022-10-10T11:27:40.822Z,15.60
2022-10-10T11:28:51.412Z,15.60
2022-10-10T11:30:08.813Z,15.50
2022-10-10T11:31:16.066Z,15.50
2022-10-10T11:32:24.424Z,15.50
2022-10-10T11:33:31.878Z,15.50
2022-10-10T11:34:44.812Z,15.60
2022-10-10T11:35:50.844Z,15.60
2022-10-10T11:36:56.970Z,15.60
2022-10-10T11:38:05.895Z,15.70
2022-10-10T11:39:16.364Z,15.70
2022-10-10T11:40:32.702Z,15.80
2022-10-10T11:41:39.010Z,15.80
2022-10-10T11:42:47.503Z,15.80
2022-10-10T11:43:54.649Z,15.80
2022-10-10T11:45:01.003Z,15.90
2022-10-10T11:46:11.594Z,15.90
2022-10-10T11:47:21.953Z,15.90
2022-10-10T11:48:33.018Z,15.90
2022-10-10T11:49:44.601Z,16.00
2022-10-10T11:50:52.994Z,15.90
2022-10-10T11:52:32.958Z,15.90
2022-10-10T11:53:41.058Z,15.80
2022-10-10T11:54:51.205Z,15.80
2022-10-10T11:55:58.400Z,15.80
2022-10-10T11:57:05.384Z,15.80
2022-10-10T11:58:36.182Z,15.80
2022-10-10T11:59:45.442Z,15.90
2022-10-10T12:00:52.043Z,15.90
2022-10-10T12:02:10.085Z,15.90
2022-10-10T12:03:12.906Z,15.90
2022-10-10T12:04:16.063Z,16.00
2022-10-10T12:05:21.759Z,16.00
2022-10-10T12:06:27.870Z,16.00
2022-10-10T12:07:36.528Z,16.00
2022-10-10T12:08:44.596Z,16.00
2022-10-10T12:09:52.571Z,16.00
2022-10-10T12:11:00.494Z,16.00
2022-10-10T12:12:08.287Z,16.00
2022-10-10T12:13:28.587Z,16.00
2022-10-10T12:14:33.445Z,16.00
2022-10-10T12:15:42.771Z,16.00
2022-10-10T12:16:49.256Z,16.00
2022-10-10T12:17:53.116Z,16.10
2022-10-10T12:19:00.974Z,16.10
2022-10-10T12:20:10.841Z,16.10
2022-10-10T12:21:16.823Z,16.10
2022-10-10T12:22:25.325Z,16.10
2022-10-10T12:23:31.054Z,16.10
2022-10-10T12:24:38.685Z,16.10
2022-10-10T12:25:46.102Z,16.10
2022-10-10T12:27:31.341Z,16.10
2022-10-10T12:28:58.263Z,16.20
2022-10-10T12:30:21.375Z,16.20
2022-10-10T12:31:35.959Z,16.20
2022-10-10T12:32:41.615Z,16.10
2022-10-10T12:34:03.543Z,16.20
2022-10-10T12:35:31.040Z,16.20
2022-10-10T12:36:55.739Z,16.30
2022-10-10T12:38:20.229Z,16.20
2022-10-10T12:40:00.145Z,16.20
2022-10-10T12:41:14.326Z,16.20
2022-10-10T12:42:31.547Z,16.20
2022-10-10T12:44:11.648Z,16.20
2022-10-10T12:45:47.148Z,16.20
2022-10-10T12:47:46.615Z,16.20
2022-10-10T12:49:06.703Z,16.20
2022-10-10T12:50:22.411Z,16.30
2022-10-10T12:51:25.508Z,16.30
2022-10-10T12:52:32.656Z,16.30
2022-10-10T12:53:34.917Z,16.30
2022-10-10T12:54:44.474Z,16.40
2022-10-10T12:55:48.023Z,16.30
2022-10-10T12:56:59.528Z,16.30
2022-10-10T12:58:04.623Z,16.30
2022-10-10T12:59:13.908Z,16.30
2022-10-10T13:00:19.946Z,16.30
2022-10-10T13:01:26.096Z,16.30
2022-10-10T13:02:29.450Z,16.30
2022-10-10T13:03:34.350Z,16.30
2022-10-10T13:04:37.722Z,16.30
2022-10-10T13:05:40.984Z,16.30
2022-10-10T13:06:45.469Z,16.30
2022-10-10T13:07:50.651Z,16.30
2022-10-10T13:08:55.078Z,16.30
2022-10-10T13:10:07.669Z,16.20
2022-10-10T13:11:11.949Z,16.20
2022-10-10T13:12:23.988Z,16.30
2022-10-10T13:13:25.923Z,16.30
2022-10-10T13:14:39.153Z,16.30
2022-10-10T13:15:51.601Z,16.30
2022-10-10T13:16:54.831Z,16.30
2022-10-10T13:17:57.247Z,16.40
2022-10-10T13:19:01.310Z,16.40
2022-10-10T13:20:06.947Z,16.50
2022-10-10T13:21:11.400Z,16.40
2022-10-10T13:22:14.432Z,16.50
2022-10-10T13:23:16.596Z,16.50
2022-10-10T13:24:24.863Z,16.50
2022-10-10T13:25:28.661Z,16.50
2022-10-10T13:26:35.054Z,16.50
2022-10-10T13:27:37.977Z,16.50
2022-10-10T13:28:39.928Z,16.50
2022-10-10T13:29:43.141Z,16.50
2022-10-10T13:30:45.798Z,16.60
2022-10-10T13:31:49.202Z,16.60
2022-10-10T13:32:54.039Z,16.70
2022-10-10T13:33:58.036Z,16.70
2022-10-10T13:35:05.953Z,16.70
2022-10-10T13:36:19.118Z,16.70
2022-10-10T13:37:23.896Z,16.80
2022-10-10T13:38:27.107Z,16.90
2022-10-10T13:39:32.166Z,17.00
2022-10-10T13:40:36.594Z,17.00
2022-10-10T13:41:38.659Z,17.00
2022-10-10T13:42:42.191Z,17.10
2022-10-10T13:43:44.428Z,17.20
2022-10-10T13:44:50.398Z,17.20
2022-10-10T13:45:58.371Z,17.30
2022-10-10T13:47:54.482Z,17.20
2022-10-10T13:48:57.749Z,17.10
2022-10-10T13:50:00.049Z,16.90
2022-10-10T13:51:09.099Z,16.90
2022-10-10T13:52:23.083Z,16.80
2022-10-10T13:53:34.309Z,16.70
2022-10-10T13:54:43.547Z,16.60
2022-10-10T13:55:46.811Z,16.60
2022-10-10T13:56:50.044Z,16.60
2022-10-10T13:57:57.126Z,16.60
2022-10-10T13:59:09.187Z,16.60
2022-10-10T14:00:18.308Z,16.60
2022-10-10T14:01:39.611Z,16.50
2022-10-10T14:02:44.346Z,16.50
2022-10-10T14:03:48.407Z,16.50
2022-10-10T14:04:54.642Z,16.60
2022-10-10T14:05:57.264Z,16.60
2022-10-10T14:07:04.871Z,16.70
2022-10-10T14:08:15.474Z,16.70
2022-10-10T14:09:23.608Z,16.70
2022-10-10T14:10:29.582Z,16.70
2022-10-10T14:11:33.391Z,16.70
2022-10-10T14:12:41.463Z,16.70
2022-10-10T14:13:47.954Z,16.70
2022-10-10T14:14:52.969Z,16.70
2022-10-10T14:16:10.117Z,16.60
2022-10-10T14:17:13.974Z,16.60
2022-10-10T14:18:20.018Z,16.60
2022-10-10T14:19:22.202Z,16.60
2022-10-10T14:20:25.242Z,16.50
2022-10-10T14:21:27.323Z,16.60
2022-10-10T14:22:30.242Z,16.50
2022-10-10T14:23:32.275Z,16.50
2022-10-10T14:24:35.420Z,16.50
2022-10-10T14:25:39.409Z,16.50
2022-10-10T14:26:43.882Z,16.60
2022-10-10T14:27:46.777Z,16.60
2022-10-10T14:28:49.456Z,16.60
2022-10-10T14:29:54.857Z,16.70
2022-10-10T14:30:56.970Z,16.70
2022-10-10T14:31:59.951Z,16.80
2022-10-10T14:33:01.920Z,16.80